Time;durP1;ratioP1;P1;durP2;ratioP2;P2;SDS_P1;SDS_P2;PMS_P1;PMS_P2;Temp;Humidity;BMP_temperature;BMP_pressure;BME280_temperature;BME280_humidity;BME280_pressure;Samples;Min_cycle;Max_cycle;Signal;HPM_P1;HPM_P2
2023/10/04 00:02:07;;;;;;;0.00;0.00;;;;;;;;;;5014669;28;20053;-67
2023/10/04 00:04:35;;;;;;;0.00;0.00;;;;;;;;;;5021992;28;20046;-68
2023/10/04 00:07:03;;;;;;;0.00;0.00;;;;;;;;;;5020450;28;20041;-68
2023/10/04 00:09:31;;;;;;;0.10;0.10;;;;;;;;;;5022453;28;20041;-68
2023/10/04 00:11:59;;;;;;;2.47;2.38;;;;;;;;;;5024239;28;20500;-66
2023/10/04 00:14:27;;;;;;;0.00;0.00;;;;;;;;;;5015226;28;20041;-68
2023/10/04 00:16:55;;;;;;;0.20;0.20;;;;;;;;;;5019642;28;20124;-66
2023/10/04 00:19:22;;;;;;;0.00;0.00;;;;;;;;;;5020182;28;20044;-68
2023/10/04 00:21:51;;;;;;;0.00;0.00;;;;;;;;;;5022248;28;20045;-68
2023/10/04 00:24:20;;;;;;;0.00;0.00;;;;;;;;;;5017905;28;20507;-67
2023/10/04 00:26:48;;;;;;;0.00;0.00;;;;;;;;;;5014605;28;20484;-68
2023/10/04 00:29:17;;;;;;;0.10;0.10;;;;;;;;;;5018230;28;20051;-68
2023/10/04 00:31:47;;;;;;;0.00;0.00;;;;;;;;;;5015162;28;20447;-69
2023/10/04 00:34:15;;;;;;;0.00;0.00;;;;;;;;;;5020965;28;20068;-68
2023/10/04 00:36:44;;;;;;;0.00;0.00;;;;;;;;;;5019079;28;20107;-68
2023/10/04 00:39:13;;;;;;;0.00;0.00;;;;;;;;;;5021589;28;20067;-69
2023/10/04 00:41:42;;;;;;;0.00;0.00;;;;;;;;;;5013203;28;20586;-68
2023/10/04 00:44:10;;;;;;;0.00;0.00;;;;;;;;;;5020113;28;20037;-69
2023/10/04 00:46:41;;;;;;;0.00;0.00;;;;;;;;;;5015625;28;20507;-69
2023/10/04 00:49:09;;;;;;;0.00;0.00;;;;;;;;;;5019653;28;20620;-68
2023/10/04 00:51:37;;;;;;;0.00;0.00;;;;;;;;;;5013867;28;20527;-68
2023/10/04 00:54:08;;;;;;;0.00;0.00;;;;;;;;;;5012985;28;20046;-69
2023/10/04 00:56:36;;;;;;;0.00;0.00;;;;;;;;;;5015711;28;20053;-69
2023/10/04 00:59:03;;;;;;;0.00;0.00;;;;;;;;;;5015948;28;20315;-68
2023/10/04 01:01:32;;;;;;;0.00;0.00;;;;;;;;;;5020157;28;20126;-68
2023/10/04 01:04:01;;;;;;;0.00;0.00;;;;;;;;;;5016147;28;20092;-68
2023/10/04 01:06:30;;;;;;;0.40;0.32;;;;;;;;;;5014882;28;20475;-68
2023/10/04 01:08:59;;;;;;;0.00;0.00;;;;;;;;;;5012332;28;20412;-69
2023/10/04 01:11:34;;;;;;;0.00;0.00;;;;;;;;;;5018122;28;20057;-69
2023/10/04 01:14:18;;;;;;;0.00;0.00;;;;;;;;;;5009779;28;20053;-68
2023/10/04 01:16:46;;;;;;;0.00;0.00;;;;;;;;;;5017079;28;20103;-68
2023/10/04 01:19:15;;;;;;;0.00;0.00;;;;;;;;;;5017968;28;20073;-69
2023/10/04 01:21:45;;;;;;;0.00;0.00;;;;;;;;;;5014902;28;20065;-69
2023/10/04 01:24:12;;;;;;;0.00;0.00;;;;;;;;;;5017777;28;20068;-69
2023/10/04 01:26:41;;;;;;;0.00;0.00;;;;;;;;;;5018449;28;20479;-69
2023/10/04 01:29:11;;;;;;;0.00;0.00;;;;;;;;;;5020220;28;20057;-69
2023/10/04 01:31:39;;;;;;;0.00;0.00;;;;;;;;;;5019490;28;20046;-68
2023/10/04 01:34:07;;;;;;;0.00;0.00;;;;;;;;;;5013848;28;20422;-69
2023/10/04 01:36:38;;;;;;;0.00;0.00;;;;;;;;;;5021396;28;20068;-69
2023/10/04 01:39:16;;;;;;;0.00;0.00;;;;;;;;;;5019978;28;20049;-68
2023/10/04 01:41:43;;;;;;;0.00;0.00;;;;;;;;;;5016225;28;20034;-68
2023/10/04 01:44:11;;;;;;;0.00;0.00;;;;;;;;;;5017974;28;20049;-69
2023/10/04 01:46:39;;;;;;;0.00;0.00;;;;;;;;;;5014458;28;20096;-68
2023/10/04 01:49:09;;;;;;;0.00;0.00;;;;;;;;;;5017347;28;20099;-69
2023/10/04 01:51:42;;;;;;;0.00;0.00;;;;;;;;;;5022069;28;20029;-68
2023/10/04 01:54:12;;;;;;;0.00;0.00;;;;;;;;;;5020294;28;20175;-68
2023/10/04 01:56:41;;;;;;;0.00;0.00;;;;;;;;;;5015686;28;20504;-69
2023/10/04 01:59:08;;;;;;;0.00;0.00;;;;;;;;;;5021833;28;20563;-68
2023/10/04 02:01:36;;;;;;;0.00;0.00;;;;;;;;;;5019365;28;20076;-68
2023/10/04 02:04:05;;;;;;;0.00;0.00;;;;;;;;;;5014831;28;20052;-68
2023/10/04 02:06:33;;;;;;;0.00;0.00;;;;;;;;;;5019695;28;20042;-69
2023/10/04 02:09:01;;;;;;;0.00;0.00;;;;;;;;;;5016938;28;20049;-68
2023/10/04 02:11:31;;;;;;;0.00;0.00;;;;;;;;;;5018836;28;20087;-69
2023/10/04 02:13:59;;;;;;;0.00;0.00;;;;;;;;;;5018845;28;20054;-69
2023/10/04 02:16:26;;;;;;;0.00;0.00;;;;;;;;;;5011506;28;20042;-69
2023/10/04 02:18:54;;;;;;;0.00;0.00;;;;;;;;;;5017312;28;20050;-68
2023/10/04 02:21:23;;;;;;;0.00;0.00;;;;;;;;;;5015701;28;20068;-68
2023/10/04 02:23:51;;;;;;;0.03;0.03;;;;;;;;;;5016852;28;20050;-68
2023/10/04 02:26:22;;;;;;;0.00;0.00;;;;;;;;;;5019024;28;20048;-69
2023/10/04 02:28:51;;;;;;;0.00;0.00;;;;;;;;;;5018972;28;20046;-68
2023/10/04 02:31:22;;;;;;;0.25;0.25;;;;;;;;;;5019527;28;20054;-69
2023/10/04 02:33:52;;;;;;;0.00;0.00;;;;;;;;;;5022298;28;20057;-68
2023/10/04 02:36:20;;;;;;;0.00;0.00;;;;;;;;;;5023639;28;20876;-68
2023/10/04 02:38:47;;;;;;;0.00;0.00;;;;;;;;;;5015816;28;21314;-69
2023/10/04 02:41:15;;;;;;;0.00;0.00;;;;;;;;;;5020368;28;20107;-69
2023/10/04 02:43:43;;;;;;;0.08;0.08;;;;;;;;;;5021219;28;20038;-68
2023/10/04 02:46:11;;;;;;;0.10;0.10;;;;;;;;;;5033943;23;20506;-72
2023/10/04 02:48:41;;;;;;;0.00;0.00;;;;;;;;;;5021316;28;20049;-72
2023/10/04 02:51:12;;;;;;;0.00;0.00;;;;;;;;;;5023504;28;20045;-73
2023/10/04 02:53:41;;;;;;;0.00;0.00;;;;;;;;;;5014012;28;20415;-72
2023/10/04 02:56:10;;;;;;;0.00;0.00;;;;;;;;;;5021953;28;20108;-72
2023/10/04 02:58:43;;;;;;;0.00;0.00;;;;;;;;;;5016910;28;20124;-72
2023/10/04 03:01:19;;;;;;;0.00;0.00;;;;;;;;;;5020817;28;20049;-73
2023/10/04 03:03:51;;;;;;;0.00;0.00;;;;;;;;;;5024416;28;20053;-73
2023/10/04 03:06:23;;;;;;;0.00;0.00;;;;;;;;;;5040090;28;20057;-72
2023/10/04 03:08:52;;;;;;;0.00;0.00;;;;;;;;;;5020812;28;20044;-72
2023/10/04 03:11:20;;;;;;;0.00;0.00;;;;;;;;;;5020109;28;20054;-72
2023/10/04 03:13:47;;;;;;;0.00;0.00;;;;;;;;;;5018743;28;20128;-72
2023/10/04 03:16:15;;;;;;;0.00;0.00;;;;;;;;;;5025092;28;20069;-73
2023/10/04 03:18:45;;;;;;;0.00;0.00;;;;;;;;;;5024305;28;20404;-73
2023/10/04 03:21:20;;;;;;;0.00;0.00;;;;;;;;;;5021104;28;20062;-73
2023/10/04 03:23:49;;;;;;;0.00;0.00;;;;;;;;;;5022195;28;20048;-73
2023/10/04 03:26:19;;;;;;;0.00;0.00;;;;;;;;;;5038069;28;20053;-72
2023/10/04 03:28:54;;;;;;;0.00;0.00;;;;;;;;;;5020005;28;20064;-73
2023/10/04 03:31:26;;;;;;;0.00;0.00;;;;;;;;;;5017924;28;20530;-72
2023/10/04 03:33:56;;;;;;;0.00;0.00;;;;;;;;;;5032575;28;20042;-73
2023/10/04 03:36:29;;;;;;;0.00;0.00;;;;;;;;;;5026113;28;20045;-72
2023/10/04 03:39:00;;;;;;;0.00;0.00;;;;;;;;;;5023476;28;20045;-72
2023/10/04 03:41:30;;;;;;;0.00;0.00;;;;;;;;;;5031404;28;20054;-73
2023/10/04 03:44:05;;;;;;;0.00;0.00;;;;;;;;;;5023978;28;20042;-72
2023/10/04 03:46:34;;;;;;;0.00;0.00;;;;;;;;;;5024788;28;20046;-72
2023/10/04 03:49:02;;;;;;;0.35;0.35;;;;;;;;;;5024522;28;20088;-73
2023/10/04 03:51:31;;;;;;;0.00;0.00;;;;;;;;;;5039619;28;20053;-72
2023/10/04 03:54:07;;;;;;;0.00;0.00;;;;;;;;;;5024049;28;20073;-72
2023/10/04 03:56:37;;;;;;;0.00;0.00;;;;;;;;;;5019739;28;20579;-73
2023/10/04 03:59:07;;;;;;;7.57;0.30;;;;;;;;;;5017796;28;20060;-72
2023/10/04 04:01:37;;;;;;;0.55;0.32;;;;;;;;;;5025317;28;20092;-73
2023/10/04 04:04:06;;;;;;;0.52;0.52;;;;;;;;;;5023385;28;20103;-73
2023/10/04 04:06:34;;;;;;;0.00;0.00;;;;;;;;;;5026360;28;20067;-72
2023/10/04 04:09:06;;;;;;;0.10;0.10;;;;;;;;;;5021710;28;20064;-72
2023/10/04 04:11:34;;;;;;;0.00;0.00;;;;;;;;;;5016964;28;20045;-73
2023/10/04 04:14:04;;;;;;;0.00;0.00;;;;;;;;;;5037542;28;20057;-73
2023/10/04 04:16:32;;;;;;;0.00;0.00;;;;;;;;;;5035434;28;20053;-72
2023/10/04 04:18:59;;;;;;;0.00;0.00;;;;;;;;;;5020556;28;20051;-72
2023/10/04 04:21:29;;;;;;;0.10;0.10;;;;;;;;;;5019432;28;20056;-73
2023/10/04 04:23:57;;;;;;;0.00;0.00;;;;;;;;;;5009038;28;20435;-73
2023/10/04 04:26:27;;;;;;;0.00;0.00;;;;;;;;;;5017485;28;20456;-72
2023/10/04 04:28:55;;;;;;;0.00;0.00;;;;;;;;;;5018426;28;20041;-72
2023/10/04 04:31:25;;;;;;;6.38;6.05;;;;;;;;;;5016460;28;20099;-72
2023/10/04 04:33:55;;;;;;;0.00;0.00;;;;;;;;;;5016431;28;20360;-73
2023/10/04 04:36:27;;;;;;;0.10;0.10;;;;;;;;;;5022157;28;20684;-72
2023/10/04 04:39:05;;;;;;;0.00;0.00;;;;;;;;;;5017349;28;20076;-73
2023/10/04 04:41:36;;;;;;;0.10;0.10;;;;;;;;;;5023156;28;20184;-73
2023/10/04 04:44:07;;;;;;;0.00;0.00;;;;;;;;;;5022679;28;20045;-73
2023/10/04 04:46:35;;;;;;;0.00;0.00;;;;;;;;;;5005383;28;20041;-72
2023/10/04 04:49:03;;;;;;;0.77;0.50;;;;;;;;;;5017589;28;20037;-73
2023/10/04 04:51:31;;;;;;;0.00;0.00;;;;;;;;;;5017449;28;20069;-73
2023/10/04 04:53:59;;;;;;;0.00;0.00;;;;;;;;;;5020796;28;20042;-73
2023/10/04 04:56:31;;;;;;;0.00;0.00;;;;;;;;;;5022562;28;20069;-73
2023/10/04 04:59:07;;;;;;;0.10;0.10;;;;;;;;;;5019674;28;20076;-73
2023/10/04 05:01:39;;;;;;;2.83;2.13;;;;;;;;;;5019976;28;20076;-73
2023/10/04 05:04:07;;;;;;;0.00;0.00;;;;;;;;;;5021949;28;20479;-72
2023/10/04 05:06:36;;;;;;;0.00;0.00;;;;;;;;;;5025827;28;20065;-73
2023/10/04 05:09:05;;;;;;;0.15;0.15;;;;;;;;;;5022284;28;20049;-72
2023/10/04 05:11:36;;;;;;;0.00;0.00;;;;;;;;;;5025744;28;20522;-72
2023/10/04 05:14:09;;;;;;;0.00;0.00;;;;;;;;;;5017518;28;20045;-73
2023/10/04 05:16:37;;;;;;;0.10;0.10;;;;;;;;;;5015744;28;20053;-72
2023/10/04 05:19:04;;;;;;;0.00;0.00;;;;;;;;;;5020098;28;20051;-72
2023/10/04 05:21:34;;;;;;;2.47;2.38;;;;;;;;;;5018610;28;20096;-72
2023/10/04 05:24:03;;;;;;;0.10;0.10;;;;;;;;;;5017541;28;20411;-72
2023/10/04 05:26:32;;;;;;;0.00;0.00;;;;;;;;;;5011888;28;20182;-73
2023/10/04 05:29:01;;;;;;;0.10;0.10;;;;;;;;;;5020257;28;20045;-73
2023/10/04 05:31:28;;;;;;;0.00;0.00;;;;;;;;;;5022006;28;20115;-73
2023/10/04 05:33:57;;;;;;;1.08;1.08;;;;;;;;;;5016750;28;20094;-74
2023/10/04 05:36:25;;;;;;;0.20;0.00;;;;;;;;;;5016998;28;20045;-73
2023/10/04 05:38:53;;;;;;;0.00;0.00;;;;;;;;;;5013335;28;20056;-74
2023/10/04 05:41:20;;;;;;;8.32;7.88;;;;;;;;;;5016841;28;20083;-72
2023/10/04 05:43:49;;;;;;;0.10;0.10;;;;;;;;;;5019409;28;20475;-73
2023/10/04 05:46:16;;;;;;;12.48;11.40;;;;;;;;;;5022155;28;20042;-72
2023/10/04 05:48:44;;;;;;;0.10;0.10;;;;;;;;;;5024723;28;20127;-73
2023/10/04 05:51:12;;;;;;;0.00;0.00;;;;;;;;;;5019603;28;21975;-74
2023/10/04 05:53:40;;;;;;;0.40;0.40;;;;;;;;;;4997772;28;20037;-74
2023/10/04 05:56:09;;;;;;;0.20;0.20;;;;;;;;;;5022128;28;20048;-73
2023/10/04 05:58:37;;;;;;;0.10;0.10;;;;;;;;;;5016391;28;20060;-71
2023/10/04 06:01:06;;;;;;;0.00;0.00;;;;;;;;;;5013425;28;20058;-72
2023/10/04 06:03:35;;;;;;;17.70;15.32;;;;;;;;;;5006398;28;20189;-74
2023/10/04 06:06:03;;;;;;;0.38;0.38;;;;;;;;;;5015570;28;20048;-73
2023/10/04 06:08:31;;;;;;;1.13;0.88;;;;;;;;;;5026783;28;20045;-74
2023/10/04 06:10:59;;;;;;;0.00;0.00;;;;;;;;;;5032688;28;20045;-73
2023/10/04 06:13:27;;;;;;;0.90;0.90;;;;;;;;;;5031157;28;20045;-73
2023/10/04 06:15:55;;;;;;;1.15;1.15;;;;;;;;;;5033188;28;20605;-73
2023/10/04 06:18:30;;;;;;;0.98;0.98;;;;;;;;;;5031980;28;20522;-73
2023/10/04 06:21:01;;;;;;;0.00;0.00;;;;;;;;;;5023257;28;20049;-73
2023/10/04 06:23:32;;;;;;;0.63;0.30;;;;;;;;;;5030984;28;20414;-73
2023/10/04 06:25:59;;;;;;;0.00;0.00;;;;;;;;;;5025222;28;20307;-73
2023/10/04 06:28:28;;;;;;;0.30;0.28;;;;;;;;;;5027762;28;20145;-73
2023/10/04 06:30:56;;;;;;;0.00;0.00;;;;;;;;;;5028416;28;20048;-73
2023/10/04 06:33:25;;;;;;;0.50;0.50;;;;;;;;;;5029099;28;20096;-73
2023/10/04 06:35:53;;;;;;;0.20;0.20;;;;;;;;;;5026185;28;20537;-73
2023/10/04 06:38:20;;;;;;;0.00;0.00;;;;;;;;;;5028118;28;20050;-73
2023/10/04 06:40:48;;;;;;;0.00;0.00;;;;;;;;;;5032215;28;20049;-73
2023/10/04 06:43:16;;;;;;;0.30;0.30;;;;;;;;;;5027935;28;20057;-72
2023/10/04 06:45:43;;;;;;;0.00;0.00;;;;;;;;;;5023300;28;20076;-73
2023/10/04 06:48:11;;;;;;;0.03;0.03;;;;;;;;;;5024810;28;20813;-74
2023/10/04 06:50:39;;;;;;;0.00;0.00;;;;;;;;;;5025735;28;20037;-73
2023/10/04 06:53:09;;;;;;;0.00;0.00;;;;;;;;;;5026853;28;20052;-72
2023/10/04 06:55:37;;;;;;;4.38;4.18;;;;;;;;;;5024220;28;20037;-73
2023/10/04 06:58:10;;;;;;;0.00;0.00;;;;;;;;;;5026824;28;20116;-73
2023/10/04 07:00:38;;;;;;;0.03;0.03;;;;;;;;;;5024642;28;20080;-72
2023/10/04 07:03:06;;;;;;;0.10;0.10;;;;;;;;;;5019520;28;20053;-74
2023/10/04 07:05:38;;;;;;;0.00;0.00;;;;;;;;;;5024764;28;20600;-73
2023/10/04 07:08:07;;;;;;;0.28;0.28;;;;;;;;;;5024849;28;20069;-72
2023/10/04 07:10:35;;;;;;;0.00;0.00;;;;;;;;;;5027725;28;20052;-72
2023/10/04 07:13:03;;;;;;;0.03;0.03;;;;;;;;;;5027862;28;20104;-72
2023/10/04 07:15:35;;;;;;;0.17;0.17;;;;;;;;;;5027047;28;20099;-73
2023/10/04 07:18:07;;;;;;;0.00;0.00;;;;;;;;;;5024050;28;20165;-73
2023/10/04 07:20:35;;;;;;;0.00;0.00;;;;;;;;;;5027502;28;20045;-72
2023/10/04 07:23:05;;;;;;;6.95;6.50;;;;;;;;;;5022279;28;20088;-74
2023/10/04 07:25:37;;;;;;;0.40;0.40;;;;;;;;;;5039609;28;20053;-73
2023/10/04 07:28:08;;;;;;;0.10;0.10;;;;;;;;;;5032402;28;20033;-74
2023/10/04 07:30:39;;;;;;;25.52;23.48;;;;;;;;;;5034770;28;20037;-73
2023/10/04 07:33:07;;;;;;;0.10;0.10;;;;;;;;;;5025611;28;20048;-73
2023/10/04 07:35:35;;;;;;;0.35;0.35;;;;;;;;;;5030879;28;20142;-72
2023/10/04 07:38:06;;;;;;;0.00;0.00;;;;;;;;;;5035236;28;20439;-74
2023/10/04 07:40:35;;;;;;;0.00;0.00;;;;;;;;;;5029633;28;20103;-72
2023/10/04 07:43:02;;;;;;;1.63;1.50;;;;;;;;;;5028174;28;20045;-72
2023/10/04 07:45:31;;;;;;;0.00;0.00;;;;;;;;;;5033426;28;20063;-73
2023/10/04 07:48:00;;;;;;;1.00;1.00;;;;;;;;;;5025415;28;20045;-72
2023/10/04 07:50:29;;;;;;;5.80;5.38;;;;;;;;;;5030069;28;20052;-72
2023/10/04 07:53:04;;;;;;;0.00;0.00;;;;;;;;;;5024884;28;20041;-73
2023/10/04 07:55:33;;;;;;;0.00;0.00;;;;;;;;;;5029100;28;20483;-72
2023/10/04 07:58:05;;;;;;;0.30;0.30;;;;;;;;;;5030323;28;20380;-73
2023/10/04 08:00:37;;;;;;;1.17;1.17;;;;;;;;;;5024840;28;20057;-73
2023/10/04 08:03:06;;;;;;;1.95;1.85;;;;;;;;;;5021478;28;20095;-73
2023/10/04 08:05:35;;;;;;;0.00;0.00;;;;;;;;;;5021614;28;20137;-72
2023/10/04 08:08:04;;;;;;;0.75;0.43;;;;;;;;;;5027023;28;20113;-73
2023/10/04 08:10:35;;;;;;;0.08;0.08;;;;;;;;;;5025881;28;20569;-73
2023/10/04 08:13:03;;;;;;;0.10;0.10;;;;;;;;;;5022375;28;20063;-72
2023/10/04 08:15:32;;;;;;;0.32;0.32;;;;;;;;;;5023786;28;20593;-71
2023/10/04 08:18:01;;;;;;;0.00;0.00;;;;;;;;;;5020351;28;20133;-72
2023/10/04 08:20:29;;;;;;;0.10;0.10;;;;;;;;;;5017034;28;20072;-73
2023/10/04 08:22:58;;;;;;;6.75;6.20;;;;;;;;;;5026163;28;20136;-73
2023/10/04 08:25:29;;;;;;;0.20;0.20;;;;;;;;;;5023667;28;20072;-71
2023/10/04 08:27:57;;;;;;;0.63;0.63;;;;;;;;;;5026992;28;20080;-72
2023/10/04 08:30:25;;;;;;;0.10;0.10;;;;;;;;;;5026618;28;20049;-73
2023/10/04 08:32:53;;;;;;;0.17;0.17;;;;;;;;;;5019278;28;20069;-73
2023/10/04 08:35:21;;;;;;;0.88;0.85;;;;;;;;;;5024662;28;20041;-72
2023/10/04 08:37:51;;;;;;;0.25;0.25;;;;;;;;;;5024223;28;20061;-72
2023/10/04 08:40:18;;;;;;;0.28;0.28;;;;;;;;;;5024144;28;20060;-72
2023/10/04 08:42:51;;;;;;;0.10;0.10;;;;;;;;;;5025512;28;20061;-72
2023/10/04 08:45:19;;;;;;;0.00;0.00;;;;;;;;;;5027063;28;20057;-72
2023/10/04 08:47:57;;;;;;;0.00;0.00;;;;;;;;;;5027156;28;20133;-73
2023/10/04 08:50:31;;;;;;;0.30;0.30;;;;;;;;;;5020410;28;20060;-72
2023/10/04 08:53:03;;;;;;;0.00;0.00;;;;;;;;;;5022519;28;20060;-72
2023/10/04 08:55:37;;;;;;;0.08;0.08;;;;;;;;;;5020207;28;20064;-73
2023/10/04 08:58:05;;;;;;;0.00;0.00;;;;;;;;;;5026276;28;20130;-72
2023/10/04 09:00:35;;;;;;;13.32;11.77;;;;;;;;;;5026651;28;20057;-74
2023/10/04 09:03:05;;;;;;;0.00;0.00;;;;;;;;;;5024369;28;20088;-73
2023/10/04 09:05:33;;;;;;;0.08;0.08;;;;;;;;;;5025769;28;20053;-73
2023/10/04 09:08:04;;;;;;;0.00;0.00;;;;;;;;;;5026152;28;20053;-72
2023/10/04 09:10:36;;;;;;;0.15;0.15;;;;;;;;;;5024012;28;20511;-72
2023/10/04 09:13:05;;;;;;;1.02;0.38;;;;;;;;;;5029537;28;20041;-71
2023/10/04 09:15:32;;;;;;;0.15;0.15;;;;;;;;;;5026812;28;20055;-73
2023/10/04 09:18:02;;;;;;;4.38;1.75;;;;;;;;;;5026066;28;20053;-73
2023/10/04 09:20:33;;;;;;;0.00;0.00;;;;;;;;;;5026848;28;20407;-72
2023/10/04 09:23:02;;;;;;;0.00;0.00;;;;;;;;;;5024075;28;20046;-73
2023/10/04 09:25:36;;;;;;;0.00;0.00;;;;;;;;;;5019565;28;20057;-72
2023/10/04 09:28:04;;;;;;;0.00;0.00;;;;;;;;;;5016427;28;20056;-73
2023/10/04 09:30:34;;;;;;;0.00;0.00;;;;;;;;;;5017439;28;20041;-73
2023/10/04 09:33:03;;;;;;;0.00;0.00;;;;;;;;;;5016774;28;20068;-72
2023/10/04 09:35:44;;;;;;;0.22;0.22;;;;;;;;;;5017943;28;20088;-72
2023/10/04 09:38:15;;;;;;;0.03;0.03;;;;;;;;;;5010989;28;20103;-73
2023/10/04 09:41:02;;;;;;;0.55;0.55;;;;;;;;;;5019917;28;20080;-72
2023/10/04 09:43:35;;;;;;;0.10;0.10;;;;;;;;;;5017425;28;20520;-73
2023/10/04 09:46:04;;;;;;;0.00;0.00;;;;;;;;;;5026808;28;20041;-73
2023/10/04 09:48:33;;;;;;;0.00;0.00;;;;;;;;;;5028849;28;20050;-72
2023/10/04 09:51:04;;;;;;;0.00;0.00;;;;;;;;;;5028733;28;20092;-73
2023/10/04 09:53:33;;;;;;;0.10;0.10;;;;;;;;;;5026631;28;20053;-71
2023/10/04 09:56:02;;;;;;;1.58;1.50;;;;;;;;;;5027481;28;20053;-73
2023/10/04 09:58:31;;;;;;;0.00;0.00;;;;;;;;;;5025182;28;20045;-72
2023/10/04 10:01:11;;;;;;;0.20;0.20;;;;;;;;;;5025591;28;20110;-72
2023/10/04 10:03:50;;;;;;;0.13;0.13;;;;;;;;;;5021442;28;20057;-72
2023/10/04 10:06:19;;;;;;;0.00;0.00;;;;;;;;;;5028982;28;20053;-73
2023/10/04 10:08:50;;;;;;;0.00;0.00;;;;;;;;;;5028002;28;20080;-72
2023/10/04 10:11:18;;;;;;;0.22;0.15;;;;;;;;;;5028084;28;20056;-72
2023/10/04 10:13:46;;;;;;;0.15;0.15;;;;;;;;;;5030161;28;20351;-72
2023/10/04 10:16:13;;;;;;;0.57;0.57;;;;;;;;;;5028747;28;20057;-73
2023/10/04 10:18:41;;;;;;;0.00;0.00;;;;;;;;;;5028310;28;20057;-72
2023/10/04 10:21:09;;;;;;;0.20;0.20;;;;;;;;;;5029106;28;20053;-72
2023/10/04 10:23:54;;;;;;;0.00;0.00;;;;;;;;;;5027994;28;20072;-72
2023/10/04 10:26:22;;;;;;;0.08;0.08;;;;;;;;;;5024891;28;20045;-72
2023/10/04 10:28:58;;;;;;;0.00;0.00;;;;;;;;;;5026789;28;20364;-73
2023/10/04 10:31:27;;;;;;;2.35;2.20;;;;;;;;;;5026667;28;20140;-72
2023/10/04 10:33:56;;;;;;;0.00;0.00;;;;;;;;;;5026234;28;20049;-72
2023/10/04 10:36:24;;;;;;;0.10;0.10;;;;;;;;;;5029311;28;20115;-72
2023/10/04 10:38:53;;;;;;;0.10;0.10;;;;;;;;;;5024879;28;20057;-72
2023/10/04 10:41:30;;;;;;;0.75;0.20;;;;;;;;;;5024004;28;20210;-72
2023/10/04 10:44:30;;;;;;;0.68;0.22;;;;;;;;;;5023476;28;20130;-72
2023/10/04 10:47:08;;;;;;;0.10;0.10;;;;;;;;;;5027110;28;20507;-72
2023/10/04 10:49:41;;;;;;;0.20;0.20;;;;;;;;;;5026693;28;20037;-72
2023/10/04 10:52:09;;;;;;;0.00;0.00;;;;;;;;;;5025222;28;20050;-72
2023/10/04 10:54:37;;;;;;;0.00;0.00;;;;;;;;;;5028561;28;20072;-73
2023/10/04 10:57:05;;;;;;;1.60;0.82;;;;;;;;;;5028989;28;20116;-73
2023/10/04 10:59:34;;;;;;;0.03;0.03;;;;;;;;;;5025147;28;20148;-74
2023/10/04 11:02:04;;;;;;;0.00;0.00;;;;;;;;;;5025920;28;20137;-73
2023/10/04 11:04:32;;;;;;;0.10;0.10;;;;;;;;;;5028872;28;20451;-72
2023/10/04 11:06:59;;;;;;;0.00;0.00;;;;;;;;;;5024559;28;20049;-72
2023/10/04 11:09:27;;;;;;;0.00;0.00;;;;;;;;;;5027091;28;20045;-72
2023/10/04 11:12:11;;;;;;;0.57;0.30;;;;;;;;;;5026711;28;20117;-73
2023/10/04 11:14:40;;;;;;;0.52;0.50;;;;;;;;;;5024775;28;20041;-73
2023/10/04 11:17:10;;;;;;;0.13;0.13;;;;;;;;;;5026597;28;20128;-73
2023/10/04 11:19:38;;;;;;;0.20;0.20;;;;;;;;;;5026789;28;20045;-72
2023/10/04 11:22:05;;;;;;;0.00;0.00;;;;;;;;;;5024167;28;20168;-72
2023/10/04 11:24:39;;;;;;;0.00;0.00;;;;;;;;;;5026301;28;20111;-72
2023/10/04 11:27:10;;;;;;;0.00;0.00;;;;;;;;;;5021681;28;20053;-72
2023/10/04 11:29:38;;;;;;;0.00;0.00;;;;;;;;;;5027196;28;20149;-73
2023/10/04 11:32:06;;;;;;;0.00;0.00;;;;;;;;;;5027977;28;20054;-72
2023/10/04 11:34:38;;;;;;;0.17;0.17;;;;;;;;;;5027092;28;20388;-73
2023/10/04 11:37:05;;;;;;;0.00;0.00;;;;;;;;;;5026374;28;20049;-72
2023/10/04 11:39:33;;;;;;;0.00;0.00;;;;;;;;;;5025777;28;20050;-71
2023/10/04 11:42:02;;;;;;;0.00;0.00;;;;;;;;;;5025465;28;20069;-72
2023/10/04 11:44:33;;;;;;;0.00;0.00;;;;;;;;;;5024653;28;20511;-72
2023/10/04 11:47:08;;;;;;;0.00;0.00;;;;;;;;;;5021328;28;20080;-71
2023/10/04 11:49:38;;;;;;;7.13;6.50;;;;;;;;;;5022938;28;20060;-72
2023/10/04 11:52:06;;;;;;;0.40;0.40;;;;;;;;;;5027989;28;20412;-71
2023/10/04 11:54:40;;;;;;;0.60;0.52;;;;;;;;;;5025241;28;20053;-73
2023/10/04 11:57:09;;;;;;;0.20;0.20;;;;;;;;;;5022531;28;20292;-73
2023/10/04 11:59:36;;;;;;;8.00;7.50;;;;;;;;;;5024787;28;20049;-74
2023/10/04 12:02:04;;;;;;;4.22;3.92;;;;;;;;;;5024630;28;20042;-71
2023/10/04 12:04:32;;;;;;;0.00;0.00;;;;;;;;;;5026104;28;20091;-72
2023/10/04 12:07:00;;;;;;;0.10;0.10;;;;;;;;;;5023000;28;20530;-72
2023/10/04 12:09:30;;;;;;;0.10;0.10;;;;;;;;;;5022045;28;20046;-72
2023/10/04 12:11:59;;;;;;;0.00;0.00;;;;;;;;;;5025944;28;20050;-72
2023/10/04 12:14:27;;;;;;;0.43;0.43;;;;;;;;;;5025672;28;20049;-71
2023/10/04 12:16:55;;;;;;;0.30;0.30;;;;;;;;;;5026561;28;20053;-72
2023/10/04 12:19:22;;;;;;;0.00;0.00;;;;;;;;;;5027056;28;20049;-72
2023/10/04 12:21:50;;;;;;;0.00;0.00;;;;;;;;;;5020552;28;20129;-72
2023/10/04 12:24:17;;;;;;;0.00;0.00;;;;;;;;;;5022905;28;20099;-72
2023/10/04 12:26:45;;;;;;;0.00;0.00;;;;;;;;;;5027111;28;20068;-72
2023/10/04 12:29:13;;;;;;;0.15;0.15;;;;;;;;;;5021917;28;20096;-72
2023/10/04 12:31:40;;;;;;;0.00;0.00;;;;;;;;;;5023937;28;20073;-72
2023/10/04 12:34:08;;;;;;;0.10;0.10;;;;;;;;;;5023277;28;20049;-72
2023/10/04 12:36:38;;;;;;;0.00;0.00;;;;;;;;;;5024526;28;20058;-73
2023/10/04 12:39:22;;;;;;;0.00;0.00;;;;;;;;;;5019373;28;20053;-72
2023/10/04 12:41:50;;;;;;;0.10;0.10;;;;;;;;;;5026267;28;20140;-73
2023/10/04 12:44:18;;;;;;;0.13;0.13;;;;;;;;;;5027102;28;20057;-72
2023/10/04 12:46:48;;;;;;;0.10;0.10;;;;;;;;;;5021959;28;20550;-71
2023/10/04 12:49:22;;;;;;;0.08;0.08;;;;;;;;;;5029729;28;20069;-71
2023/10/04 12:51:50;;;;;;;0.00;0.00;;;;;;;;;;5026880;28;20049;-71
2023/10/04 12:54:23;;;;;;;0.15;0.05;;;;;;;;;;5029088;28;20137;-71
2023/10/04 12:56:51;;;;;;;0.00;0.00;;;;;;;;;;5023512;28;20044;-72
2023/10/04 12:59:23;;;;;;;0.00;0.00;;;;;;;;;;5020936;28;20057;-71
2023/10/04 13:01:55;;;;;;;0.08;0.08;;;;;;;;;;5021636;28;20046;-72
2023/10/04 13:04:23;;;;;;;0.10;0.10;;;;;;;;;;5017916;28;20145;-71
2023/10/04 13:06:51;;;;;;;3.90;3.70;;;;;;;;;;5024993;28;20048;-72
2023/10/04 13:09:19;;;;;;;0.00;0.00;;;;;;;;;;5027585;28;20106;-72
2023/10/04 13:11:49;;;;;;;0.00;0.00;;;;;;;;;;5026562;28;20098;-71
2023/10/04 13:14:16;;;;;;;0.00;0.00;;;;;;;;;;5020221;28;20068;-72
2023/10/04 13:16:44;;;;;;;0.00;0.00;;;;;;;;;;5021465;28;20072;-72
2023/10/04 13:19:11;;;;;;;0.05;0.05;;;;;;;;;;5016227;28;20153;-72
2023/10/04 13:21:39;;;;;;;0.70;0.17;;;;;;;;;;5025091;28;20410;-72
2023/10/04 13:24:06;;;;;;;0.00;0.00;;;;;;;;;;5020939;28;20049;-73
2023/10/04 13:26:34;;;;;;;0.20;0.20;;;;;;;;;;5023196;28;20059;-73
2023/10/04 13:29:03;;;;;;;0.00;0.00;;;;;;;;;;5028344;28;20502;-72
2023/10/04 13:31:31;;;;;;;0.00;0.00;;;;;;;;;;5027489;28;20053;-73
2023/10/04 13:33:59;;;;;;;0.10;0.10;;;;;;;;;;5020509;28;20122;-72
2023/10/04 13:36:27;;;;;;;0.95;0.60;;;;;;;;;;5017778;28;20124;-74
2023/10/04 13:38:54;;;;;;;0.00;0.00;;;;;;;;;;5015440;28;20428;-72
2023/10/04 13:41:22;;;;;;;0.00;0.00;;;;;;;;;;5025804;28;20061;-72
2023/10/04 13:43:49;;;;;;;0.00;0.00;;;;;;;;;;5023081;28;20527;-73
2023/10/04 13:46:17;;;;;;;0.00;0.00;;;;;;;;;;5021289;28;20141;-72
2023/10/04 13:48:44;;;;;;;0.00;0.00;;;;;;;;;;5021175;28;20050;-72
2023/10/04 13:51:21;;;;;;;0.00;0.00;;;;;;;;;;5027717;28;20053;-72
2023/10/04 13:53:50;;;;;;;0.10;0.10;;;;;;;;;;5026175;28;20052;-73
2023/10/04 13:56:17;;;;;;;0.10;0.10;;;;;;;;;;5025204;28;20049;-73
2023/10/04 13:58:44;;;;;;;0.00;0.00;;;;;;;;;;5027163;28;20107;-72
2023/10/04 14:01:14;;;;;;;0.05;0.03;;;;;;;;;;5025661;28;20045;-72
2023/10/04 14:03:44;;;;;;;0.10;0.10;;;;;;;;;;5016945;28;20507;-73
2023/10/04 14:06:12;;;;;;;0.00;0.00;;;;;;;;;;5016196;28;20533;-72
2023/10/04 14:08:43;;;;;;;0.00;0.00;;;;;;;;;;5016500;28;20515;-72
2023/10/04 14:11:11;;;;;;;0.00;0.00;;;;;;;;;;5019853;28;20108;-72
2023/10/04 14:13:38;;;;;;;0.00;0.00;;;;;;;;;;5033981;28;20099;-72
2023/10/04 14:16:07;;;;;;;0.00;0.00;;;;;;;;;;5015000;28;20046;-72
2023/10/04 14:18:36;;;;;;;0.13;0.13;;;;;;;;;;5017455;28;20377;-72
2023/10/04 14:21:04;;;;;;;0.60;0.45;;;;;;;;;;5013400;28;20049;-72
2023/10/04 14:23:32;;;;;;;0.10;0.10;;;;;;;;;;5021716;28;20359;-71
2023/10/04 14:26:00;;;;;;;0.40;0.35;;;;;;;;;;5028296;28;20053;-72
2023/10/04 14:28:28;;;;;;;0.00;0.00;;;;;;;;;;5028690;28;20055;-72
2023/10/04 14:30:59;;;;;;;0.00;0.00;;;;;;;;;;5028162;28;20057;-71
2023/10/04 14:33:27;;;;;;;0.00;0.00;;;;;;;;;;5022135;28;20060;-72
2023/10/04 14:35:54;;;;;;;0.00;0.00;;;;;;;;;;5024351;28;20091;-73
2023/10/04 14:38:22;;;;;;;0.40;0.40;;;;;;;;;;5024170;28;20546;-73
2023/10/04 14:40:49;;;;;;;0.20;0.20;;;;;;;;;;5017629;28;20056;-73
2023/10/04 14:43:28;;;;;;;0.00;0.00;;;;;;;;;;5017031;28;20100;-73
2023/10/04 14:45:56;;;;;;;0.10;0.10;;;;;;;;;;5031118;28;20050;-73
2023/10/04 14:48:24;;;;;;;0.15;0.15;;;;;;;;;;5024810;28;20049;-73
2023/10/04 14:50:53;;;;;;;0.57;0.32;;;;;;;;;;5026446;28;20053;-72
2023/10/04 14:53:26;;;;;;;;;;;;;;;;;;5032329;28;20052;-72
2023/10/04 14:55:58;;;;;;;0.10;0.10;;;;;;;;;;5042804;28;19964;-73
2023/10/04 14:58:32;;;;;;;0.20;0.20;;;;;;;;;;5027413;28;20092;-73